Time;durP1;ratioP1;P1;durP2;ratioP2;P2;SDS_P1;SDS_P2;PMS_P1;PMS_P2;Temp;Humidity;BMP_temperature;BMP_pressure;BME280_temperature;BME280_humidity;BME280_pressure;Samples;Min_cycle;Max_cycle;Signal;HPM_P1;HPM_P2
2023/07/18 00:02:46;;;;;;;17.15;8.68;;;;;;;18.64;69.74;100566.24;1804292;79;21212;-54
2023/07/18 00:05:52;;;;;;;13.45;9.65;;;;;;;18.62;69.74;100560.92;1804272;79;21193;-53
2023/07/18 00:08:59;;;;;;;22.80;9.78;;;;;;;18.57;69.69;100548.26;1804090;79;21641;-53
2023/07/18 00:12:05;;;;;;;15.05;9.18;;;;;;;18.52;69.71;100539.75;1805070;79;21184;-55
2023/07/18 00:15:13;;;;;;;15.58;9.63;;;;;;;18.48;69.79;100540.43;1802632;79;21393;-53
2023/07/18 00:18:21;;;;;;;13.43;8.98;;;;;;;18.46;69.90;100550.36;1804377;79;21311;-53
2023/07/18 00:21:27;;;;;;;15.05;9.30;;;;;;;18.42;70.00;100543.58;1804661;78;21227;-53
2023/07/18 00:24:33;;;;;;;13.48;8.58;;;;;;;18.39;70.12;100538.48;1804412;79;21220;-53
2023/07/18 00:27:39;;;;;;;14.53;9.38;;;;;;;18.38;70.24;100539.53;1804463;79;21710;-53
2023/07/18 00:30:46;;;;;;;12.95;9.58;;;;;;;18.37;70.39;100540.58;1804400;79;21180;-53
2023/07/18 00:33:52;;;;;;;12.95;8.60;;;;;;;18.36;70.47;100544.41;1804327;79;21185;-53
2023/07/18 00:36:59;;;;;;;19.05;9.38;;;;;;;18.36;70.51;100536.09;1827940;78;21320;-53
2023/07/18 00:40:10;;;;;;;14.55;9.73;;;;;;;18.33;70.56;100533.77;1827531;78;21398;-54
2023/07/18 00:43:21;;;;;;;14.87;9.53;;;;;;;18.33;70.65;100539.31;1827326;78;21375;-53
2023/07/18 00:46:27;;;;;;;15.10;9.45;;;;;;;18.31;70.71;100535.93;1827652;78;21352;-53
2023/07/18 00:49:34;;;;;;;17.30;9.23;;;;;;;18.29;70.77;100533.05;1827455;78;21411;-53
2023/07/18 00:52:40;;;;;;;13.72;9.23;;;;;;;18.28;70.83;100535.52;1827902;78;21315;-54
2023/07/18 00:55:47;;;;;;;14.05;9.88;;;;;;;18.25;70.91;100528.48;1827218;78;21406;-53
2023/07/18 00:58:53;;;;;;;15.85;10.00;;;;;;;18.25;71.07;100523.49;1826734;78;21351;-53
2023/07/18 01:01:58;;;;;;;15.28;10.35;;;;;;;18.24;71.16;100525.93;1808320;78;21860;-55
2023/07/18 01:05:04;;;;;;;16.02;9.83;;;;;;;18.24;71.20;100533.72;1826472;78;21492;-53
2023/07/18 01:08:11;;;;;;;14.75;9.83;;;;;;;18.22;71.31;100527.54;1827186;78;21847;-54
2023/07/18 01:11:18;;;;;;;19.70;9.90;;;;;;;18.21;71.40;100527.23;1826505;78;21356;-55
2023/07/18 01:14:26;;;;;;;15.05;9.78;;;;;;;18.22;71.43;100527.54;1827712;78;21355;-54
2023/07/18 01:17:32;;;;;;;14.93;9.35;;;;;;;18.24;71.53;100520.39;1813640;76;21352;-54
2023/07/18 01:20:39;;;;;;;17.95;9.95;;;;;;;18.22;71.58;100516.45;1800767;79;21721;-54
2023/07/18 01:23:45;;;;;;;12.75;9.50;;;;;;;18.22;71.72;100512.85;1801058;79;21841;-53
2023/07/18 01:26:52;;;;;;;15.80;9.98;;;;;;;18.22;71.91;100509.52;1800847;79;21200;-54
2023/07/18 01:29:58;;;;;;;19.17;10.45;;;;;;;18.24;72.08;100519.86;1800822;79;21213;-54
2023/07/18 01:33:05;;;;;;;17.48;10.13;;;;;;;18.26;72.12;100521.88;1800912;79;21360;-54
2023/07/18 01:36:12;;;;;;;21.87;10.75;;;;;;;18.26;72.09;100523.27;1800934;79;21232;-54
2023/07/18 01:39:18;;;;;;;11.93;8.88;;;;;;;18.29;72.17;100518.66;1800865;79;21232;-54
2023/07/18 01:42:26;;;;;;;14.53;9.20;;;;;;;18.31;72.26;100516.53;1801286;79;21599;-54
2023/07/18 01:45:34;;;;;;;9.83;8.80;;;;;;;18.32;72.21;100515.45;1800876;79;21205;-54
2023/07/18 01:48:41;;;;;;;12.10;8.78;;;;;;;18.31;72.14;100510.98;1801450;79;21753;-54
2023/07/18 01:51:48;;;;;;;11.75;9.00;;;;;;;18.29;72.15;100506.19;1800986;79;21233;-54
2023/07/18 01:54:57;;;;;;;11.68;8.45;;;;;;;18.27;72.18;100500.54;1800058;79;21177;-54
2023/07/18 01:58:03;;;;;;;11.83;8.93;;;;;;;18.28;72.27;100505.03;1800875;79;21205;-54
2023/07/18 02:01:09;;;;;;;13.28;9.35;;;;;;;18.27;72.41;100495.86;1801094;79;21255;-53
2023/07/18 02:04:15;;;;;;;10.58;9.15;;;;;;;18.27;72.53;100490.31;1800941;79;21260;-54
2023/07/18 02:07:22;;;;;;;11.85;9.18;;;;;;;18.27;72.62;100492.22;1800845;79;21201;-54
2023/07/18 02:10:29;;;;;;;14.95;9.80;;;;;;;18.27;72.71;100493.08;1800889;79;21710;-54
2023/07/18 02:13:36;;;;;;;13.03;9.93;;;;;;;18.25;72.77;100484.13;1800849;79;21353;-55
2023/07/18 02:16:43;;;;;;;11.28;9.48;;;;;;;18.26;72.88;100476.68;1800279;79;21260;-55
2023/07/18 02:19:49;;;;;;;13.65;10.35;;;;;;;18.28;73.07;100471.77;1833587;78;21318;-55
2023/07/18 02:22:56;;;;;;;13.40;10.43;;;;;;;18.31;73.26;100470.80;1838593;77;21856;-53
2023/07/18 02:26:02;;;;;;;17.52;9.70;;;;;;;18.30;73.26;100467.69;1838671;78;21358;-53
2023/07/18 02:29:07;;;;;;;11.43;9.28;;;;;;;18.30;73.21;100474.63;1838631;78;21342;-53
2023/07/18 02:32:16;;;;;;;14.07;10.68;;;;;;;18.29;73.21;100472.94;1837988;78;21848;-53
2023/07/18 02:35:24;;;;;;;14.47;9.85;;;;;;;18.31;73.25;100483.27;1838944;78;21382;-53
2023/07/18 02:38:30;;;;;;;12.47;10.43;;;;;;;18.31;73.27;100476.34;1837725;78;21319;-54
2023/07/18 02:41:37;;;;;;;12.82;9.50;;;;;;;18.33;73.30;100473.34;1838329;78;21343;-54
2023/07/18 02:44:43;;;;;;;13.62;10.18;;;;;;;18.32;73.27;100464.16;1839116;77;21844;-54
2023/07/18 02:47:48;;;;;;;14.25;9.88;;;;;;;18.34;73.38;100462.03;1838796;78;21366;-54
2023/07/18 02:50:56;;;;;;;13.40;10.65;;;;;;;18.37;73.49;100468.51;1838689;77;21335;-54
2023/07/18 02:54:03;;;;;;;10.53;9.43;;;;;;;18.42;73.59;100477.04;1838393;78;21350;-54
2023/07/18 02:57:09;;;;;;;11.28;9.88;;;;;;;18.49;73.69;100476.99;1820427;77;21306;-54
2023/07/18 03:00:19;;;;;;;15.43;10.00;;;;;;;18.56;73.83;100473.09;1821994;77;21932;-54
2023/07/18 03:03:26;;;;;;;11.83;9.63;;;;;;;18.62;73.90;100473.56;1822574;77;21180;-54
2023/07/18 03:06:32;;;;;;;12.53;9.20;;;;;;;18.70;74.00;100467.74;1822743;78;21377;-53
2023/07/18 03:09:39;;;;;;;12.88;9.33;;;;;;;18.78;74.05;100466.08;1822841;78;21807;-54
2023/07/18 03:12:46;;;;;;;12.65;9.50;;;;;;;18.86;74.08;100467.17;1822785;77;21341;-54
2023/07/18 03:15:52;;;;;;;15.23;9.68;;;;;;;18.93;74.06;100463.78;1823036;78;21365;-52
2023/07/18 03:19:00;;;;;;;14.07;9.63;;;;;;;19.02;74.13;100462.97;1823906;76;21353;-54
2023/07/18 03:22:06;;;;;;;12.80;9.78;;;;;;;19.12;74.17;100468.29;1822725;77;21901;-54
2023/07/18 03:25:13;;;;;;;16.40;9.90;;;;;;;19.20;74.22;100464.39;1822585;78;21377;-54
2023/07/18 03:28:21;;;;;;;11.80;10.58;;;;;;;19.31;74.29;100472.81;1823376;78;21765;-53
2023/07/18 03:31:27;;;;;;;13.15;9.93;;;;;;;19.43;74.37;100475.69;1792750;80;21442;-55
2023/07/18 03:34:34;;;;;;;13.00;10.15;;;;;;;19.56;74.41;100471.91;1792655;80;21358;-54
2023/07/18 03:37:40;;;;;;;16.93;10.95;;;;;;;19.67;74.41;100465.04;1792954;80;21319;-55
2023/07/18 03:40:47;;;;;;;16.42;10.85;;;;;;;19.80;74.43;100473.75;1792981;80;21366;-55
2023/07/18 03:43:55;;;;;;;13.22;10.78;;;;;;;19.92;74.45;100471.86;1793047;80;21351;-54
2023/07/18 03:47:03;;;;;;;15.13;10.72;;;;;;;20.06;74.45;100468.67;1792615;80;21363;-54
2023/07/18 03:50:10;;;;;;;12.95;11.03;;;;;;;20.18;74.44;100465.98;1792440;80;21346;-55
2023/07/18 03:53:15;;;;;;;13.40;11.57;;;;;;;20.28;74.41;100461.53;1792626;79;21331;-55
2023/07/18 03:56:22;;;;;;;12.47;9.93;;;;;;;20.39;74.34;100460.72;1792727;79;21331;-55
2023/07/18 03:59:28;;;;;;;13.03;10.53;;;;;;;20.49;74.34;100455.44;1770191;80;21374;-55
2023/07/18 04:02:33;;;;;;;13.88;10.30;;;;;;;20.59;74.34;100452.06;1793153;79;21406;-54
2023/07/18 04:05:41;;;;;;;14.87;10.80;;;;;;;20.68;74.36;100457.05;1793082;79;21339;-54
2023/07/18 04:08:48;;;;;;;14.78;10.98;;;;;;;20.79;74.37;100458.13;1793001;80;21383;-55
2023/07/18 04:11:56;;;;;;;17.27;11.40;;;;;;;20.87;74.38;100445.26;1792971;80;21327;-54
2023/07/18 04:15:03;;;;;;;14.98;11.48;;;;;;;20.95;74.35;100445.47;1793090;80;21430;-54
2023/07/18 04:18:09;;;;;;;20.23;12.03;;;;;;;21.03;74.34;100447.36;1798574;78;21322;-54
2023/07/18 04:21:15;;;;;;;18.35;11.70;;;;;;;21.09;74.33;100436.64;1782504;79;21363;-54
2023/07/18 04:24:21;;;;;;;12.93;11.55;;;;;;;21.19;74.36;100441.06;1795233;79;21370;-54
2023/07/18 04:27:28;;;;;;;15.63;11.03;;;;;;;21.33;74.39;100443.89;1795264;79;21256;-55
2023/07/18 04:30:35;;;;;;;14.50;11.48;;;;;;;21.49;74.42;100448.71;1795229;79;21294;-56
2023/07/18 04:33:45;;;;;;;15.85;10.55;;;;;;;21.64;74.42;100447.66;1795171;79;21336;-55
2023/07/18 04:36:52;;;;;;;13.68;10.82;;;;;;;21.79;74.39;100444.36;1794813;79;21189;-54
2023/07/18 04:39:59;;;;;;;13.08;11.22;;;;;;;21.93;74.40;100440.19;1816475;78;21361;-55
2023/07/18 04:43:06;;;;;;;15.85;10.65;;;;;;;22.06;74.41;100437.96;1829332;77;21351;-54
2023/07/18 04:46:13;;;;;;;12.93;11.00;;;;;;;22.20;74.39;100431.52;1833026;77;21349;-57
2023/07/18 04:49:19;;;;;;;13.50;10.08;;;;;;;22.32;74.36;100434.25;1838654;77;21357;-55
2023/07/18 04:52:25;;;;;;;16.00;10.68;;;;;;;22.43;74.31;100421.64;1838016;77;21318;-54
2023/07/18 04:55:31;;;;;;;14.68;10.65;;;;;;;22.55;74.27;100416.03;1837562;77;21338;-54
2023/07/18 04:58:37;;;;;;;15.20;10.35;;;;;;;22.68;74.25;100415.67;1838656;77;21362;-52
2023/07/18 05:01:44;;;;;;;11.12;9.70;;;;;;;22.81;74.22;100407.81;1838547;77;21350;-51
2023/07/18 05:04:52;;;;;;;15.18;10.90;;;;;;;22.92;74.12;100407.41;1837335;77;21427;-53
2023/07/18 05:08:03;;;;;;;13.62;11.05;;;;;;;22.96;73.96;100403.02;1837311;77;21331;-54
2023/07/18 05:11:10;;;;;;;13.88;11.15;;;;;;;22.98;73.85;100402.19;1837458;77;21678;-55
2023/07/18 05:14:17;;;;;;;14.23;10.72;;;;;;;22.98;73.82;100400.25;1837558;77;21228;-58
2023/07/18 05:17:24;;;;;;;14.55;11.65;;;;;;;23.02;73.83;100403.39;1837728;77;21373;-58
2023/07/18 05:20:31;;;;;;;14.87;10.68;;;;;;;23.08;73.87;100400.96;1829158;77;21176;-58
2023/07/18 05:23:37;;;;;;;14.50;11.78;;;;;;;23.12;73.84;100404.38;1815529;78;21358;-57
2023/07/18 05:26:46;;;;;;;16.93;12.03;;;;;;;23.20;73.85;100400.28;1806975;78;21335;-58
2023/07/18 05:29:52;;;;;;;20.27;13.28;;;;;;;23.32;73.89;100394.94;1838718;78;21827;-57
2023/07/18 05:33:00;;;;;;;19.80;13.70;;;;;;;23.44;73.86;100385.02;1838413;78;21418;-58
2023/07/18 05:36:07;;;;;;;18.45;13.03;;;;;;;23.56;73.83;100387.14;1838220;78;21354;-57
2023/07/18 05:39:13;;;;;;;21.40;13.22;;;;;;;23.68;73.82;100382.25;1838650;77;21385;-58
2023/07/18 05:42:19;;;;;;;17.10;13.03;;;;;;;23.78;73.78;100379.59;1838336;78;21824;-57
2023/07/18 05:45:26;;;;;;;23.07;13.70;;;;;;;23.89;73.72;100374.94;1806146;78;21875;-57
2023/07/18 05:48:36;;;;;;;20.70;14.95;;;;;;;23.98;73.63;100372.84;1824507;78;21318;-58
2023/07/18 05:51:40;;;;;;;23.05;13.72;;;;;;;24.05;73.65;100372.09;1811400;77;21335;-59
2023/07/18 05:54:47;;;;;;;17.55;13.95;;;;;;;24.15;73.66;100371.35;1831733;77;21855;-57
2023/07/18 05:57:56;;;;;;;18.67;13.83;;;;;;;24.22;73.53;100366.36;1826173;78;21330;-56
2023/07/18 06:01:04;;;;;;;19.52;12.58;;;;;;;24.25;73.46;100368.63;1829886;77;21188;-57
2023/07/18 06:04:15;;;;;;;16.95;13.03;;;;;;;24.27;73.38;100372.87;1828286;77;21357;-55
2023/07/18 06:07:24;;;;;;;19.65;13.15;;;;;;;24.33;73.33;100365.35;1835307;78;21342;-55
2023/07/18 06:10:30;;;;;;;17.73;14.38;;;;;;;24.39;73.33;100376.33;1817082;78;21188;-55
2023/07/18 06:13:35;;;;;;;16.62;12.58;;;;;;;24.45;73.29;100365.46;1806156;78;21839;-56
2023/07/18 06:16:40;;;;;;;17.50;15.18;;;;;;;24.54;73.27;100368.08;1824378;78;21337;-55
2023/07/18 06:19:47;;;;;;;16.20;11.68;;;;;;;24.62;73.23;100354.98;1818138;77;21196;-56
2023/07/18 06:22:52;;;;;;;17.50;11.20;;;;;;;24.71;73.14;100354.80;1815034;77;21898;-56
2023/07/18 06:26:01;;;;;;;17.10;11.18;;;;;;;24.80;73.04;100346.75;1803211;78;21208;-57
2023/07/18 06:29:05;;;;;;;19.05;10.43;;;;;;;24.90;73.00;100342.05;1800972;78;21352;-55
2023/07/18 06:32:12;;;;;;;16.65;10.75;;;;;;;25.02;72.89;100348.28;1821276;78;21204;-55
2023/07/18 06:35:18;;;;;;;16.73;11.25;;;;;;;25.12;72.79;100339.09;1829996;78;21350;-55
2023/07/18 06:38:26;;;;;;;15.23;11.12;;;;;;;25.25;72.71;100343.36;1836788;78;21354;-56
2023/07/18 06:41:32;;;;;;;16.80;10.05;;;;;;;25.36;72.60;100342.32;1836915;78;21338;-56
2023/07/18 06:44:39;;;;;;;14.63;10.13;;;;;;;25.47;72.54;100339.84;1836951;78;21350;-55
2023/07/18 06:47:45;;;;;;;17.27;9.98;;;;;;;25.56;72.43;100334.83;1837196;78;21864;-56
2023/07/18 06:50:57;;;;;;;12.90;9.45;;;;;;;25.68;72.31;100331.25;1837353;77;21369;-55
2023/07/18 06:54:02;;;;;;;13.30;7.90;;;;;;;25.80;72.12;100321.19;1820433;77;22030;-55
2023/07/18 06:57:10;;;;;;;12.45;7.78;;;;;;;25.89;71.86;100326.53;1831688;78;22286;-57
2023/07/18 07:00:17;;;;;;;12.95;8.03;;;;;;;26.00;71.72;100329.13;1838411;78;21389;-55
2023/07/18 07:03:24;;;;;;;11.30;8.10;;;;;;;26.10;71.53;100326.89;1837500;78;21372;-55
2023/07/18 07:06:32;;;;;;;10.43;8.23;;;;;;;26.15;71.24;100317.91;1838519;78;21350;-57
2023/07/18 07:09:39;;;;;;;14.80;7.65;;;;;;;26.25;71.16;100322.69;1836437;78;21354;-53
2023/07/18 07:12:49;;;;;;;11.85;8.15;;;;;;;26.38;71.01;100320.73;1828269;77;21330;-57
2023/07/18 07:15:56;;;;;;;11.35;7.67;;;;;;;26.51;70.81;100313.70;1821952;77;21179;-56
2023/07/18 07:19:02;;;;;;;12.13;10.82;;;;;;;26.61;70.52;100317.92;1822159;77;21391;-55
2023/07/18 07:22:12;;;;;;;15.75;13.95;;;;;;;26.71;70.31;100313.70;1831568;78;22029;-55
2023/07/18 07:25:20;;;;;;;17.25;14.40;;;;;;;26.81;70.02;100320.17;1831846;77;21889;-55
2023/07/18 07:28:27;;;;;;;18.20;15.55;;;;;;;26.91;69.77;100317.91;1832245;77;21354;-56
2023/07/18 07:31:33;;;;;;;15.13;13.00;;;;;;;26.96;69.48;100307.48;1832468;78;21358;-55
2023/07/18 07:34:39;;;;;;;12.43;10.78;;;;;;;27.03;69.17;100304.37;1831985;78;21350;-56
2023/07/18 07:37:46;;;;;;;12.78;8.40;;;;;;;27.06;68.86;100303.24;1832371;78;21323;-56
2023/07/18 07:40:55;;;;;;;9.88;8.25;;;;;;;27.14;68.61;100301.25;1832035;78;21330;-55
2023/07/18 07:44:00;;;;;;;8.13;7.12;;;;;;;27.23;68.40;100301.48;1832370;78;21386;-56
2023/07/18 07:47:07;;;;;;;8.83;6.72;;;;;;;27.31;68.14;100298.96;1833395;78;21899;-56
2023/07/18 07:50:14;;;;;;;9.55;6.17;;;;;;;27.41;67.90;100295.27;1834479;77;21389;-56
2023/07/18 07:53:20;;;;;;;6.62;5.42;;;;;;;27.48;67.66;100295.22;1834107;78;21952;-56
2023/07/18 07:56:26;;;;;;;8.13;6.05;;;;;;;27.55;67.39;100295.77;1829932;78;21976;-55
2023/07/18 07:59:34;;;;;;;9.63;6.58;;;;;;;27.65;67.17;100284.44;1823253;78;21366;-58
2023/07/18 08:02:42;;;;;;;6.03;5.33;;;;;;;27.75;66.92;100286.34;1746710;81;21181;-57
2023/07/18 08:05:47;;;;;;;8.43;6.10;;;;;;;27.88;66.68;100287.70;1803810;79;21252;-58
2023/07/18 08:08:53;;;;;;;10.58;5.85;;;;;;;27.96;66.30;100281.45;1805192;78;21334;-57
2023/07/18 08:12:01;;;;;;;9.33;5.33;;;;;;;28.02;66.04;100278.31;1823185;78;21200;-58
2023/07/18 08:15:06;;;;;;;7.35;5.80;;;;;;;28.12;65.77;100281.62;1826444;77;21413;-59
2023/07/18 08:18:13;;;;;;;6.35;4.92;;;;;;;28.18;65.40;100284.11;1832899;77;21183;-59
2023/07/18 08:21:20;;;;;;;7.55;4.87;;;;;;;28.26;65.08;100284.07;1822256;78;21808;-57
2023/07/18 08:24:30;;;;;;;6.65;5.17;;;;;;;28.31;64.70;100276.41;1808187;78;21566;-55
2023/07/18 08:27:36;;;;;;;7.90;5.20;;;;;;;28.41;64.39;100272.66;1777714;79;21185;-56
2023/07/18 08:30:45;;;;;;;8.65;5.05;;;;;;;28.53;64.18;100267.48;1755895;80;21370;-56
2023/07/18 08:33:53;;;;;;;7.45;5.60;;;;;;;28.66;63.85;100271.03;1753251;81;21766;-55
2023/07/18 08:37:00;;;;;;;13.88;8.23;;;;;;;28.78;63.48;100268.67;1750445;81;21210;-56
2023/07/18 08:40:09;;;;;;;8.75;5.80;;;;;;;28.83;63.05;100263.80;1816750;78;21362;-57
2023/07/18 08:43:14;;;;;;;6.15;5.10;;;;;;;28.91;62.82;100258.06;1816715;78;21176;-55
2023/07/18 08:46:23;;;;;;;9.13;5.37;;;;;;;28.98;62.38;100259.97;1804610;78;21361;-56
2023/07/18 08:49:29;;;;;;;8.80;4.62;;;;;;;29.02;62.03;100258.22;1809847;78;21732;-58
2023/07/18 08:52:36;;;;;;;8.00;4.90;;;;;;;29.09;61.71;100248.31;1816822;78;21701;-56
2023/07/18 08:55:44;;;;;;;9.80;4.90;;;;;;;29.19;61.32;100243.13;1820446;78;21339;-57
2023/07/18 08:58:50;;;;;;;10.38;5.67;;;;;;;29.26;60.95;100242.16;1818912;78;21728;-59
2023/07/18 09:01:59;;;;;;;5.60;4.87;;;;;;;29.31;60.57;100233.64;1835274;78;21322;-56
2023/07/18 09:05:05;;;;;;;5.95;4.70;;;;;;;29.49;60.07;100224.38;1835793;78;21347;-57
2023/07/18 09:08:14;;;;;;;11.97;5.10;;;;;;;29.49;60.07;100224.38;1830445;78;21438;-55
2023/07/18 09:11:20;;;;;;;7.65;5.30;;;;;;;29.65;59.66;100216.55;1812564;78;21228;-58
2023/07/18 09:14:33;;;;;;;8.05;4.83;;;;;;;29.76;59.24;100210.45;1803184;79;21203;-55
2023/07/18 09:17:41;;;;;;;7.85;5.62;;;;;;;29.79;58.74;100208.42;1803422;79;21727;-55
2023/07/18 09:20:47;;;;;;;16.25;14.50;;;;;;;29.90;58.44;100211.35;1804530;79;21373;-56
2023/07/18 09:23:54;;;;;;;13.88;6.33;;;;;;;30.14;58.31;100202.20;1804074;79;21338;-56
2023/07/18 09:26:58;;;;;;;11.43;5.55;;;;;;;30.44;58.17;100193.20;1803845;79;21698;-58
2023/07/18 09:30:05;;;;;;;10.48;5.87;;;;;;;30.67;57.86;100191.32;1805107;79;21945;-57
2023/07/18 09:33:13;;;;;;;6.53;4.90;;;;;;;30.90;57.69;100199.38;1804711;79;21401;-57
2023/07/18 09:36:27;;;;;;;7.25;4.72;;;;;;;31.01;57.02;100198.02;1805085;79;21875;-56
2023/07/18 09:39:35;;;;;;;11.20;5.20;;;;;;;31.01;56.46;100172.56;1805298;79;21385;-56
2023/07/18 09:42:40;;;;;;;8.08;4.95;;;;;;;31.09;56.15;100178.91;1819598;78;21355;-56
2023/07/18 09:45:46;;;;;;;8.30;5.72;;;;;;;31.14;55.74;100176.81;1822557;78;21354;-56
2023/07/18 09:48:54;;;;;;;9.03;5.85;;;;;;;31.19;55.52;100175.86;1821697;78;21216;-57
2023/07/18 09:52:10;;;;;;;9.95;5.72;;;;;;;31.24;55.36;100172.32;1822075;78;21328;-56
2023/07/18 09:55:18;;;;;;;7.33;5.30;;;;;;;31.33;55.15;100176.14;1827544;78;21871;-56
2023/07/18 09:58:25;;;;;;;10.20;5.20;;;;;;;31.33;54.72;100178.11;1823327;77;21728;-56
2023/07/18 10:01:32;;;;;;;10.35;5.10;;;;;;;31.30;54.42;100164.58;1820980;77;21513;-58
2023/07/18 10:04:40;;;;;;;8.65;5.05;;;;;;;31.27;54.10;100164.61;1826984;77;21728;-57
2023/07/18 10:07:47;;;;;;;10.80;5.53;;;;;;;31.29;53.84;100160.05;1804397;79;21389;-59
2023/07/18 10:11:08;;;;;;;8.93;5.53;;;;;;;31.43;53.76;100158.90;1805081;79;21354;-63
2023/07/18 10:14:19;;;;;;;6.60;4.80;;;;;;;31.67;53.59;100150.11;1804935;79;21265;-59
2023/07/18 10:17:49;;;;;;;8.30;5.17;;;;;;;31.87;53.28;100149.66;1804707;79;21365;-59
2023/07/18 10:21:04;;;;;;;8.25;5.53;;;;;;;31.99;52.95;100141.41;1802651;79;21402;-58
2023/07/18 10:24:31;;;;;;;10.60;5.28;;;;;;;32.03;52.47;100131.93;1821300;78;21707;-59
2023/07/18 10:27:48;;;;;;;10.45;4.85;;;;;;;32.02;52.08;100136.51;1809857;78;21382;-61
2023/07/18 10:30:59;;;;;;;9.20;5.67;;;;;;;32.01;51.78;100124.94;1790334;77;21350;-59
2023/07/18 10:34:18;;;;;;;6.47;4.60;;;;;;;32.11;51.63;100127.50;1786965;79;21783;-59
2023/07/18 10:37:30;;;;;;;10.18;4.87;;;;;;;32.22;51.44;100124.66;1798991;79;21168;-57
2023/07/18 10:40:48;;;;;;;9.13;6.08;;;;;;;32.29;51.13;100119.34;1782282;79;21338;-59
2023/07/18 10:43:57;;;;;;;11.35;5.08;;;;;;;32.43;51.01;100119.30;1768636;81;21258;-61
2023/07/18 10:47:02;;;;;;;13.98;5.50;;;;;;;32.54;50.62;100111.56;1768103;80;21199;-59
2023/07/18 10:50:09;;;;;;;9.48;4.97;;;;;;;32.62;50.38;100107.92;1772692;79;21219;-60
2023/07/18 10:53:23;;;;;;;6.28;4.80;;;;;;;32.63;50.07;100108.20;1761268;80;21346;-61
2023/07/18 10:56:30;;;;;;;9.20;4.75;;;;;;;32.67;49.84;100106.94;1761676;81;21696;-60
2023/07/18 10:59:37;;;;;;;7.58;4.80;;;;;;;32.70;49.52;100092.95;1761721;81;22032;-60
2023/07/18 11:02:48;;;;;;;9.83;5.40;;;;;;;32.77;49.19;100084.81;1761932;80;21938;-60
2023/07/18 11:05:58;;;;;;;8.25;5.33;;;;;;;32.84;48.88;100092.84;1773039;77;21745;-60
2023/07/18 11:09:07;;;;;;;8.13;4.87;;;;;;;32.95;48.71;100087.95;1768551;81;21362;-60
2023/07/18 11:12:14;;;;;;;10.35;5.10;;;;;;;33.02;48.41;100091.72;1786912;78;21215;-59
2023/07/18 11:15:21;;;;;;;9.48;5.25;;;;;;;32.93;48.00;100080.38;1799712;79;21247;-59
2023/07/18 11:18:30;;;;;;;10.10;5.20;;;;;;;32.92;47.82;100071.59;1798909;79;21184;-60
2023/07/18 11:21:39;;;;;;;11.50;5.28;;;;;;;32.99;47.65;100073.38;1787836;79;21197;-60
2023/07/18 11:24:48;;;;;;;7.35;5.30;;;;;;;33.13;47.56;100060.44;1798058;79;21247;-61
2023/07/18 11:27:56;;;;;;;7.53;5.17;;;;;;;33.26;47.26;100060.30;1812667;78;21731;-59
2023/07/18 11:31:04;;;;;;;8.38;5.08;;;;;;;33.24;46.95;100047.02;1821572;77;21250;-61
2023/07/18 11:34:12;;;;;;;7.10;4.50;;;;;;;33.28;46.76;100046.59;1821036;77;21498;-61
2023/07/18 11:37:19;;;;;;;6.22;5.10;;;;;;;33.30;46.52;100037.16;1821293;78;21179;-58
